Cloverdale, California
Current Conditions -  °F | °C
As of 7:53 AM on Monday 26 Jan 2015 (Local Time) from KSTS Reporting Station
Light Fog Light Fog  
Wind Chill: 35°   Ceiling: 12000
Heat Index: 35°   Visibility: 6mi
Dew Point: 34°   Wind: 0mph
Humidity: 96%   Direction: NA
Pressure: 30.04"   Gusts: NA
Location:  38.81°N, 123.02°W
Report Text: KSTS 261553Z 00000KT 6SM BCFG SCT001 BKN120 02/01 A3004 RMK AO2 SLP168 T00170011
Loading
Personal Weather Stations






























Interactive Weather Map New forecast layout! Learn more

10-Day Weather Forecast

Advertisements
Track Severe Weather on mobile